AAL9128 MMSD-KPHX
Flight info
| Callsign | AAL9128 |
|---|---|
| Flight time | 1h 46m |
| Altitude | 36000 |
| Route | ANEGO1A ANEGO DCT LTO DCT HMO J92 TUS DCT HOTTT PINNG1 |
| Aircraft | A21N/M-SDE3FGHIRWY/LB1 |
Departure
| Time | 2026-04-21 15:39 |
|---|---|
| Airport | Los Cabos International Airport (MMSD) |
Arrival
| Time | 2026-04-21 17:25 |
|---|---|
| Airport | Phoenix Sky Harbor International Airport (KPHX) |
| Time | Latitude | Longitude | Altitude | Speed | Heading |
|---|---|---|---|---|---|
| 2026-04-21 15:30 | 23.16107 | -109.71825 | 374 ft | 0 kts | 85° |
| 2026-04-21 15:32 | 23.16106 | -109.71829 | 374 ft | 2 kts | 85° |
| 2026-04-21 15:32 | 23.16105 | -109.71845 | 375 ft | 2 kts | 85° |
| 2026-04-21 15:33 | 23.16104 | -109.71861 | 375 ft | 2 kts | 106° |
| 2026-04-21 15:33 | 23.16112 | -109.71875 | 375 ft | 2 kts | 148° |
| 2026-04-21 15:33 | 23.16121 | -109.71879 | 375 ft | 0 kts | 172° |
| 2026-04-21 15:33 | 23.16128 | -109.71879 | 375 ft | 0 kts | 175° |
| 2026-04-21 15:35 | 23.16109 | -109.71877 | 375 ft | 13 kts | 175° |
| 2026-04-21 15:35 | 23.15899 | -109.71857 | 372 ft | 41 kts | 175° |
| 2026-04-21 15:36 | 23.15614 | -109.71825 | 366 ft | 40 kts | 175° |
| 2026-04-21 15:36 | 23.15417 | -109.71889 | 363 ft | 22 kts | 178° |
| 2026-04-21 15:36 | 23.15194 | -109.71868 | 358 ft | 44 kts | 174° |
| 2026-04-21 15:36 | 23.14845 | -109.71832 | 347 ft | 50 kts | 174° |
| 2026-04-21 15:37 | 23.14498 | -109.71796 | 335 ft | 49 kts | 175° |
| 2026-04-21 15:37 | 23.14156 | -109.71761 | 321 ft | 48 kts | 174° |
| 2026-04-21 15:37 | 23.13911 | -109.71815 | 314 ft | 21 kts | 277° |
| 2026-04-21 15:37 | 23.13925 | -109.71926 | 317 ft | 11 kts | 335° |
| 2026-04-21 15:38 | 23.14065 | -109.71948 | 323 ft | 49 kts | 355° |
| 2026-04-21 15:38 | 23.14673 | -109.72018 | 346 ft | 122 kts | 353° |
| 2026-04-21 15:38 | 23.15724 | -109.72144 | 403 ft | 177 kts | 352° |
| 2026-04-21 15:38 | 23.17014 | -109.72282 | 965 ft | 190 kts | 354° |
| 2026-04-21 15:39 | 23.18279 | -109.72419 | 1969 ft | 181 kts | 354° |
| 2026-04-21 15:39 | 23.19524 | -109.72556 | 2685 ft | 188 kts | 355° |
| 2026-04-21 15:39 | 23.20876 | -109.72705 | 3234 ft | 205 kts | 355° |
| 2026-04-21 15:39 | 23.22367 | -109.72869 | 3788 ft | 222 kts | 354° |
| 2026-04-21 15:40 | 23.23964 | -109.73046 | 4282 ft | 243 kts | 354° |
| 2026-04-21 15:40 | 23.25732 | -109.73246 | 4800 ft | 265 kts | 353° |
| 2026-04-21 15:40 | 23.27608 | -109.73458 | 5443 ft | 280 kts | 353° |
| 2026-04-21 15:40 | 23.29567 | -109.73680 | 6264 ft | 287 kts | 353° |
| 2026-04-21 15:41 | 23.31566 | -109.73907 | 7105 ft | 291 kts | 352° |
| 2026-04-21 15:41 | 23.33579 | -109.74141 | 7906 ft | 295 kts | 349° |
| 2026-04-21 15:41 | 23.35589 | -109.74583 | 8697 ft | 297 kts | 341° |
| 2026-04-21 15:41 | 23.37524 | -109.75391 | 9471 ft | 296 kts | 324° |
| 2026-04-21 15:42 | 23.38974 | -109.76884 | 10229 ft | 290 kts | 299° |
| 2026-04-21 15:42 | 23.39703 | -109.78884 | 10922 ft | 289 kts | 279° |
| 2026-04-21 15:42 | 23.40100 | -109.81084 | 11340 ft | 305 kts | 278° |
| 2026-04-21 15:42 | 23.40623 | -109.83379 | 11827 ft | 318 kts | 283° |
| 2026-04-21 15:43 | 23.41291 | -109.85654 | 12535 ft | 323 kts | 285° |
| 2026-04-21 15:43 | 23.42069 | -109.87946 | 13296 ft | 325 kts | 287° |
| 2026-04-21 15:43 | 23.42907 | -109.90238 | 13993 ft | 329 kts | 289° |
| 2026-04-21 15:43 | 23.43780 | -109.92524 | 14664 ft | 332 kts | 290° |
| 2026-04-21 15:44 | 23.44685 | -109.94839 | 15359 ft | 334 kts | 290° |
| 2026-04-21 15:44 | 23.45609 | -109.97173 | 16020 ft | 336 kts | 291° |
| 2026-04-21 15:44 | 23.46530 | -109.99483 | 16672 ft | 338 kts | 291° |
| 2026-04-21 15:44 | 23.47468 | -110.01834 | 17321 ft | 340 kts | 291° |
| 2026-04-21 15:45 | 23.48415 | -110.04199 | 17964 ft | 342 kts | 291° |
| 2026-04-21 15:45 | 23.49370 | -110.06578 | 18592 ft | 345 kts | 291° |
| 2026-04-21 15:45 | 23.50333 | -110.08980 | 19234 ft | 346 kts | 291° |
| 2026-04-21 15:45 | 23.51281 | -110.11348 | 19854 ft | 348 kts | 291° |
| 2026-04-21 15:46 | 23.52245 | -110.13758 | 20472 ft | 349 kts | 290° |
| 2026-04-21 15:46 | 23.53344 | -110.16135 | 21076 ft | 353 kts | 297° |
| 2026-04-21 15:46 | 23.54731 | -110.18336 | 21658 ft | 358 kts | 304° |
| 2026-04-21 15:46 | 23.56399 | -110.20367 | 22239 ft | 362 kts | 309° |
| 2026-04-21 15:47 | 23.58182 | -110.22311 | 22830 ft | 364 kts | 310° |
| 2026-04-21 15:47 | 23.59991 | -110.24262 | 23402 ft | 366 kts | 310° |
| 2026-04-21 15:47 | 23.61803 | -110.26213 | 23940 ft | 368 kts | 310° |
| 2026-04-21 15:47 | 23.63631 | -110.28186 | 24481 ft | 371 kts | 309° |
| 2026-04-21 15:48 | 23.65467 | -110.30170 | 25030 ft | 372 kts | 309° |
| 2026-04-21 15:48 | 23.67314 | -110.32169 | 25559 ft | 374 kts | 309° |
| 2026-04-21 15:48 | 23.69166 | -110.34172 | 26053 ft | 376 kts | 309° |
| 2026-04-21 15:48 | 23.71001 | -110.36162 | 26501 ft | 378 kts | 309° |
| 2026-04-21 15:49 | 23.72875 | -110.38193 | 26960 ft | 381 kts | 309° |
| 2026-04-21 15:49 | 23.74775 | -110.40253 | 27420 ft | 382 kts | 309° |
| 2026-04-21 15:49 | 23.76658 | -110.42297 | 27848 ft | 384 kts | 309° |
| 2026-04-21 15:49 | 23.78563 | -110.44367 | 28260 ft | 386 kts | 309° |
| 2026-04-21 15:50 | 23.80253 | -110.46206 | 28624 ft | 388 kts | 309° |
| 2026-04-21 15:50 | 23.82162 | -110.48282 | 28858 ft | 394 kts | 309° |
| 2026-04-21 15:50 | 23.84117 | -110.50407 | 29123 ft | 398 kts | 309° |
| 2026-04-21 15:50 | 23.86109 | -110.52515 | 29468 ft | 403 kts | 313° |
| 2026-04-21 15:51 | 23.88326 | -110.54463 | 29834 ft | 409 kts | 318° |
| 2026-04-21 15:51 | 23.90714 | -110.56159 | 30163 ft | 416 kts | 323° |
| 2026-04-21 15:51 | 23.93290 | -110.57608 | 30488 ft | 423 kts | 329° |
| 2026-04-21 15:51 | 23.96078 | -110.58807 | 30818 ft | 428 kts | 333° |
| 2026-04-21 15:52 | 23.98891 | -110.59874 | 31101 ft | 432 kts | 334° |
| 2026-04-21 15:52 | 24.01748 | -110.60929 | 31344 ft | 435 kts | 334° |
| 2026-04-21 15:52 | 24.03657 | -110.61632 | 31551 ft | 436 kts | 334° |
| 2026-04-21 15:52 | 24.07494 | -110.63045 | 32089 ft | 434 kts | 334° |
| 2026-04-21 15:53 | 24.10346 | -110.64098 | 32493 ft | 432 kts | 334° |
| 2026-04-21 15:53 | 24.13203 | -110.65154 | 32836 ft | 432 kts | 333° |
| 2026-04-21 15:53 | 24.16074 | -110.66221 | 32964 ft | 437 kts | 333° |
| 2026-04-21 15:53 | 24.18946 | -110.67290 | 33129 ft | 441 kts | 334° |
| 2026-04-21 15:54 | 24.21853 | -110.68372 | 33414 ft | 441 kts | 334° |
| 2026-04-21 15:54 | 24.24776 | -110.69456 | 33798 ft | 439 kts | 334° |
| 2026-04-21 15:54 | 24.27653 | -110.70525 | 34187 ft | 437 kts | 334° |
| 2026-04-21 15:54 | 24.30545 | -110.71600 | 34530 ft | 436 kts | 334° |
| 2026-04-21 15:55 | 24.33397 | -110.72663 | 34780 ft | 436 kts | 334° |
| 2026-04-21 15:55 | 24.36263 | -110.73732 | 35005 ft | 437 kts | 334° |
| 2026-04-21 15:55 | 24.39172 | -110.74818 | 35217 ft | 438 kts | 334° |
| 2026-04-21 15:55 | 24.42029 | -110.75884 | 35430 ft | 438 kts | 334° |
| 2026-04-21 15:56 | 24.44914 | -110.76961 | 35634 ft | 438 kts | 334° |
| 2026-04-21 15:56 | 24.47802 | -110.78039 | 35810 ft | 439 kts | 334° |
| 2026-04-21 15:56 | 24.50709 | -110.79124 | 35984 ft | 439 kts | 333° |
| 2026-04-21 15:56 | 24.53614 | -110.80210 | 36054 ft | 439 kts | 333° |
| 2026-04-21 15:57 | 24.59403 | -110.82376 | 36066 ft | 440 kts | 333° |
| 2026-04-21 15:57 | 24.65190 | -110.84543 | 36067 ft | 440 kts | 334° |
| 2026-04-21 15:58 | 24.71009 | -110.86725 | 36069 ft | 440 kts | 333° |
| 2026-04-21 15:58 | 24.76811 | -110.88902 | 36071 ft | 439 kts | 333° |
| 2026-04-21 15:59 | 24.82581 | -110.91068 | 36069 ft | 440 kts | 333° |
| 2026-04-21 15:59 | 24.88373 | -110.93246 | 36072 ft | 440 kts | 333° |
| 2026-04-21 16:00 | 24.94163 | -110.95425 | 36079 ft | 440 kts | 333° |
| 2026-04-21 16:00 | 24.99977 | -110.97616 | 36083 ft | 439 kts | 334° |
| 2026-04-21 16:01 | 25.05761 | -110.99796 | 36078 ft | 439 kts | 333° |
| 2026-04-21 16:01 | 25.11564 | -111.01987 | 36076 ft | 440 kts | 333° |
| 2026-04-21 16:02 | 25.17322 | -111.04162 | 36072 ft | 439 kts | 333° |
| 2026-04-21 16:02 | 25.23122 | -111.06355 | 36061 ft | 439 kts | 333° |
| 2026-04-21 16:03 | 25.28894 | -111.08542 | 36061 ft | 439 kts | 333° |
| 2026-04-21 16:03 | 25.34661 | -111.10729 | 36060 ft | 439 kts | 334° |
| 2026-04-21 16:04 | 25.40454 | -111.12927 | 36068 ft | 439 kts | 334° |
| 2026-04-21 16:04 | 25.46222 | -111.15117 | 36067 ft | 439 kts | 334° |
| 2026-04-21 16:05 | 25.51999 | -111.17313 | 36072 ft | 439 kts | 334° |
| 2026-04-21 16:05 | 25.57770 | -111.19509 | 36068 ft | 439 kts | 334° |
| 2026-04-21 16:06 | 25.63544 | -111.21709 | 36069 ft | 439 kts | 334° |
| 2026-04-21 16:06 | 25.69329 | -111.23916 | 36060 ft | 439 kts | 334° |
| 2026-04-21 16:07 | 25.75084 | -111.26115 | 36054 ft | 438 kts | 334° |
| 2026-04-21 16:07 | 25.80829 | -111.28313 | 36055 ft | 438 kts | 334° |
| 2026-04-21 16:08 | 25.89482 | -111.31605 | 36067 ft | 440 kts | 335° |
| 2026-04-21 16:09 | 25.95500 | -111.33266 | 36070 ft | 447 kts | 342° |
| 2026-04-21 16:09 | 26.01701 | -111.34083 | 36065 ft | 454 kts | 349° |
| 2026-04-21 16:10 | 26.08098 | -111.34008 | 36063 ft | 462 kts | 356° |
| 2026-04-21 16:10 | 26.14495 | -111.33427 | 36058 ft | 463 kts | 358° |
| 2026-04-21 16:11 | 26.20946 | -111.32809 | 36046 ft | 462 kts | 357° |
| 2026-04-21 16:11 | 26.27333 | -111.32205 | 36038 ft | 462 kts | 357° |
| 2026-04-21 16:12 | 26.32704 | -111.31700 | 36035 ft | 462 kts | 357° |
| 2026-04-21 16:12 | 26.40163 | -111.31003 | 36031 ft | 462 kts | 357° |
| 2026-04-21 16:13 | 26.46609 | -111.30398 | 36034 ft | 462 kts | 357° |
| 2026-04-21 16:13 | 26.53005 | -111.29799 | 36039 ft | 462 kts | 357° |
| 2026-04-21 16:14 | 26.59410 | -111.29197 | 36043 ft | 462 kts | 357° |
| 2026-04-21 16:14 | 26.65824 | -111.28594 | 36046 ft | 462 kts | 357° |
| 2026-04-21 16:15 | 26.72253 | -111.27989 | 36043 ft | 462 kts | 358° |
| 2026-04-21 16:15 | 26.78663 | -111.27384 | 36046 ft | 463 kts | 357° |
| 2026-04-21 16:16 | 26.85046 | -111.26783 | 36043 ft | 463 kts | 357° |
| 2026-04-21 16:16 | 26.91489 | -111.26174 | 36045 ft | 463 kts | 357° |
| 2026-04-21 16:17 | 26.97916 | -111.25567 | 36042 ft | 462 kts | 357° |
| 2026-04-21 16:17 | 27.04312 | -111.24963 | 36044 ft | 462 kts | 357° |
| 2026-04-21 16:18 | 27.10716 | -111.24358 | 36043 ft | 462 kts | 358° |
| 2026-04-21 16:18 | 27.17130 | -111.23750 | 36048 ft | 463 kts | 358° |
| 2026-04-21 16:19 | 27.23551 | -111.23140 | 36052 ft | 463 kts | 358° |
| 2026-04-21 16:19 | 27.29965 | -111.22530 | 36045 ft | 462 kts | 358° |
| 2026-04-21 16:20 | 27.36396 | -111.21917 | 36044 ft | 462 kts | 358° |
| 2026-04-21 16:20 | 27.42817 | -111.21307 | 36042 ft | 462 kts | 358° |
| 2026-04-21 16:21 | 27.49241 | -111.20695 | 36042 ft | 464 kts | 358° |
| 2026-04-21 16:21 | 27.55635 | -111.20084 | 36044 ft | 463 kts | 358° |
| 2026-04-21 16:22 | 27.60993 | -111.19572 | 36041 ft | 463 kts | 358° |
| 2026-04-21 16:22 | 27.68494 | -111.18855 | 36039 ft | 463 kts | 358° |
| 2026-04-21 16:23 | 27.74919 | -111.18238 | 36036 ft | 463 kts | 358° |
| 2026-04-21 16:23 | 27.81355 | -111.17620 | 36042 ft | 463 kts | 358° |
| 2026-04-21 16:24 | 27.87766 | -111.17005 | 36048 ft | 463 kts | 358° |
| 2026-04-21 16:24 | 27.94208 | -111.16386 | 36042 ft | 464 kts | 358° |
| 2026-04-21 16:25 | 28.00623 | -111.15768 | 36046 ft | 465 kts | 358° |
| 2026-04-21 16:25 | 28.07100 | -111.15144 | 36049 ft | 464 kts | 358° |
| 2026-04-21 16:26 | 28.13543 | -111.14521 | 36042 ft | 463 kts | 358° |
| 2026-04-21 16:26 | 28.19977 | -111.13900 | 36047 ft | 463 kts | 358° |
| 2026-04-21 16:27 | 28.26383 | -111.13282 | 36050 ft | 464 kts | 358° |
| 2026-04-21 16:27 | 28.32839 | -111.12656 | 36053 ft | 464 kts | 358° |
| 2026-04-21 16:28 | 28.39266 | -111.12032 | 36060 ft | 464 kts | 358° |
| 2026-04-21 16:28 | 28.45684 | -111.11410 | 36066 ft | 463 kts | 358° |
| 2026-04-21 16:29 | 28.51014 | -111.10892 | 36067 ft | 463 kts | 358° |
| 2026-04-21 16:29 | 28.58498 | -111.10164 | 36070 ft | 462 kts | 358° |
| 2026-04-21 16:30 | 28.64912 | -111.09540 | 36063 ft | 464 kts | 359° |
| 2026-04-21 16:30 | 28.71381 | -111.08910 | 36058 ft | 464 kts | 359° |
| 2026-04-21 16:31 | 28.77795 | -111.08283 | 36057 ft | 463 kts | 359° |
| 2026-04-21 16:31 | 28.84216 | -111.07655 | 36052 ft | 463 kts | 359° |
| 2026-04-21 16:32 | 28.90665 | -111.07024 | 36055 ft | 463 kts | 359° |
| 2026-04-21 16:32 | 28.97082 | -111.06396 | 36055 ft | 462 kts | 359° |
| 2026-04-21 16:33 | 29.03467 | -111.05769 | 36056 ft | 462 kts | 359° |
| 2026-04-21 16:33 | 29.09897 | -111.05168 | 36067 ft | 461 kts | 357° |
| 2026-04-21 16:34 | 29.16284 | -111.04851 | 36074 ft | 460 kts | 356° |
| 2026-04-21 16:34 | 29.22678 | -111.04576 | 36090 ft | 461 kts | 356° |
| 2026-04-21 16:35 | 29.29100 | -111.04294 | 36099 ft | 461 kts | 356° |
| 2026-04-21 16:35 | 29.35485 | -111.04012 | 36095 ft | 460 kts | 356° |
| 2026-04-21 16:36 | 29.41907 | -111.03724 | 36088 ft | 460 kts | 356° |
| 2026-04-21 16:36 | 29.48322 | -111.03439 | 36088 ft | 460 kts | 356° |
| 2026-04-21 16:37 | 29.54701 | -111.03154 | 36088 ft | 460 kts | 356° |
| 2026-04-21 16:37 | 29.61102 | -111.02867 | 36092 ft | 460 kts | 356° |
| 2026-04-21 16:38 | 29.67499 | -111.02577 | 36096 ft | 461 kts | 357° |
| 2026-04-21 16:38 | 29.73862 | -111.02290 | 36102 ft | 460 kts | 357° |
| 2026-04-21 16:39 | 29.80282 | -111.02001 | 36104 ft | 460 kts | 357° |
| 2026-04-21 16:39 | 29.86656 | -111.01713 | 36105 ft | 459 kts | 357° |
| 2026-04-21 16:40 | 29.93025 | -111.01428 | 36106 ft | 459 kts | 357° |
| 2026-04-21 16:40 | 29.99453 | -111.01139 | 36120 ft | 460 kts | 357° |
| 2026-04-21 16:41 | 30.04791 | -111.00899 | 36117 ft | 460 kts | 357° |
| 2026-04-21 16:41 | 30.12240 | -111.00564 | 36132 ft | 460 kts | 357° |
| 2026-04-21 16:42 | 30.18614 | -111.00273 | 36143 ft | 460 kts | 357° |
| 2026-04-21 16:42 | 30.25013 | -110.99984 | 36159 ft | 460 kts | 357° |
| 2026-04-21 16:43 | 30.31418 | -110.99694 | 36162 ft | 460 kts | 357° |
| 2026-04-21 16:43 | 30.37813 | -110.99406 | 36169 ft | 459 kts | 358° |
| 2026-04-21 16:44 | 30.44202 | -110.99121 | 36180 ft | 460 kts | 358° |
| 2026-04-21 16:44 | 30.50584 | -110.98831 | 36170 ft | 460 kts | 358° |
| 2026-04-21 16:45 | 30.56977 | -110.98522 | 36182 ft | 460 kts | 358° |
| 2026-04-21 16:45 | 30.63343 | -110.98207 | 36195 ft | 460 kts | 358° |
| 2026-04-21 16:46 | 30.69720 | -110.97896 | 36203 ft | 460 kts | 358° |
| 2026-04-21 16:46 | 30.76147 | -110.97583 | 36217 ft | 460 kts | 358° |
| 2026-04-21 16:47 | 30.82508 | -110.97273 | 36225 ft | 460 kts | 358° |
| 2026-04-21 16:47 | 30.88896 | -110.96980 | 36238 ft | 460 kts | 358° |
| 2026-04-21 16:48 | 30.95301 | -110.96687 | 36248 ft | 460 kts | 358° |
| 2026-04-21 16:48 | 31.01720 | -110.96397 | 36262 ft | 459 kts | 358° |
| 2026-04-21 16:49 | 31.08104 | -110.96104 | 36260 ft | 460 kts | 358° |
| 2026-04-21 16:49 | 31.14484 | -110.95812 | 36263 ft | 460 kts | 358° |
| 2026-04-21 16:50 | 31.20880 | -110.95522 | 36248 ft | 460 kts | 358° |
| 2026-04-21 16:50 | 31.27282 | -110.95230 | 36237 ft | 459 kts | 359° |
| 2026-04-21 16:51 | 31.33651 | -110.94938 | 36226 ft | 460 kts | 358° |
| 2026-04-21 16:51 | 31.40053 | -110.94642 | 36214 ft | 460 kts | 359° |
| 2026-04-21 16:52 | 31.46436 | -110.94348 | 36205 ft | 460 kts | 359° |
| 2026-04-21 16:52 | 31.51782 | -110.94102 | 36200 ft | 460 kts | 359° |
| 2026-04-21 16:53 | 31.59258 | -110.93761 | 36204 ft | 460 kts | 359° |
| 2026-04-21 16:53 | 31.65623 | -110.93468 | 36189 ft | 460 kts | 359° |
| 2026-04-21 16:54 | 31.72040 | -110.93173 | 36187 ft | 460 kts | 359° |
| 2026-04-21 16:54 | 31.78429 | -110.92880 | 36188 ft | 460 kts | 359° |
| 2026-04-21 16:55 | 31.84819 | -110.92587 | 36069 ft | 461 kts | 359° |
| 2026-04-21 16:55 | 31.88008 | -110.92440 | 35803 ft | 459 kts | 359° |
| 2026-04-21 16:55 | 31.91162 | -110.92295 | 35549 ft | 456 kts | 359° |
| 2026-04-21 16:55 | 31.94363 | -110.92149 | 35285 ft | 454 kts | 359° |
| 2026-04-21 16:56 | 31.97484 | -110.92006 | 35028 ft | 452 kts | 359° |
| 2026-04-21 16:56 | 32.00633 | -110.91860 | 34770 ft | 451 kts | 359° |
| 2026-04-21 16:56 | 32.03769 | -110.91750 | 34497 ft | 451 kts | 358° |
| 2026-04-21 16:56 | 32.06923 | -110.91817 | 34065 ft | 451 kts | 354° |
| 2026-04-21 16:57 | 32.10042 | -110.92084 | 33476 ft | 451 kts | 352° |
| 2026-04-21 16:57 | 32.13147 | -110.92555 | 32775 ft | 451 kts | 348° |
| 2026-04-21 16:57 | 32.16229 | -110.93230 | 32024 ft | 450 kts | 345° |
| 2026-04-21 16:57 | 32.19295 | -110.94038 | 31244 ft | 452 kts | 344° |
| 2026-04-21 16:58 | 32.22358 | -110.94874 | 30448 ft | 453 kts | 344° |
| 2026-04-21 16:58 | 32.25384 | -110.95705 | 29645 ft | 454 kts | 344° |
| 2026-04-21 16:58 | 32.28492 | -110.96558 | 28813 ft | 457 kts | 345° |
| 2026-04-21 16:58 | 32.31581 | -110.97401 | 27954 ft | 459 kts | 345° |
| 2026-04-21 16:59 | 32.34682 | -110.98248 | 27068 ft | 462 kts | 345° |
| 2026-04-21 16:59 | 32.37825 | -110.99104 | 26380 ft | 464 kts | 345° |
| 2026-04-21 16:59 | 32.41014 | -110.99973 | 26144 ft | 471 kts | 345° |
| 2026-04-21 16:59 | 32.44208 | -111.00842 | 25865 ft | 471 kts | 345° |
| 2026-04-21 17:00 | 32.47371 | -111.01702 | 25582 ft | 471 kts | 345° |
| 2026-04-21 17:00 | 32.50554 | -111.02631 | 25234 ft | 464 kts | 341° |
| 2026-04-21 17:00 | 32.52560 | -111.03474 | 25027 ft | 454 kts | 336° |
| 2026-04-21 17:00 | 32.56157 | -111.05662 | 25009 ft | 422 kts | 327° |
| 2026-04-21 17:01 | 32.58606 | -111.07474 | 24913 ft | 409 kts | 325° |
| 2026-04-21 17:01 | 32.60989 | -111.09293 | 24351 ft | 410 kts | 325° |
| 2026-04-21 17:01 | 32.63382 | -111.11121 | 23794 ft | 410 kts | 325° |
| 2026-04-21 17:01 | 32.65787 | -111.12950 | 23253 ft | 410 kts | 325° |
| 2026-04-21 17:02 | 32.68197 | -111.14771 | 22709 ft | 407 kts | 326° |
| 2026-04-21 17:02 | 32.70549 | -111.16541 | 22210 ft | 403 kts | 326° |
| 2026-04-21 17:02 | 32.72886 | -111.18359 | 21793 ft | 395 kts | 321° |
| 2026-04-21 17:02 | 32.74896 | -111.20454 | 21603 ft | 380 kts | 312° |
| 2026-04-21 17:03 | 32.76560 | -111.22850 | 21153 ft | 374 kts | 303° |
| 2026-04-21 17:03 | 32.78028 | -111.25404 | 20698 ft | 370 kts | 301° |
| 2026-04-21 17:03 | 32.79435 | -111.27938 | 20257 ft | 367 kts | 301° |
| 2026-04-21 17:03 | 32.80822 | -111.30438 | 19824 ft | 363 kts | 301° |
| 2026-04-21 17:04 | 32.82207 | -111.32922 | 19389 ft | 360 kts | 301° |
| 2026-04-21 17:04 | 32.83589 | -111.35388 | 18956 ft | 357 kts | 302° |
| 2026-04-21 17:04 | 32.84959 | -111.37827 | 18528 ft | 354 kts | 302° |
| 2026-04-21 17:04 | 32.86323 | -111.40253 | 18094 ft | 352 kts | 302° |
| 2026-04-21 17:05 | 32.87681 | -111.42668 | 17664 ft | 349 kts | 302° |
| 2026-04-21 17:05 | 32.89009 | -111.45027 | 17354 ft | 342 kts | 301° |
| 2026-04-21 17:05 | 32.90318 | -111.47355 | 17229 ft | 330 kts | 302° |
| 2026-04-21 17:05 | 32.91628 | -111.49535 | 17057 ft | 321 kts | 306° |
| 2026-04-21 17:06 | 32.92987 | -111.51587 | 16647 ft | 320 kts | 306° |
| 2026-04-21 17:06 | 32.94387 | -111.53674 | 16235 ft | 319 kts | 306° |
| 2026-04-21 17:06 | 32.95761 | -111.55718 | 15845 ft | 318 kts | 306° |
| 2026-04-21 17:06 | 32.97142 | -111.57775 | 15465 ft | 317 kts | 306° |
| 2026-04-21 17:07 | 32.98063 | -111.59150 | 15211 ft | 316 kts | 306° |
| 2026-04-21 17:07 | 32.99871 | -111.61853 | 14688 ft | 315 kts | 306° |
| 2026-04-21 17:07 | 33.01242 | -111.63908 | 14310 ft | 314 kts | 306° |
| 2026-04-21 17:07 | 33.02602 | -111.65945 | 13907 ft | 314 kts | 305° |
| 2026-04-21 17:08 | 33.03958 | -111.67980 | 13519 ft | 312 kts | 304° |
| 2026-04-21 17:08 | 33.05298 | -111.69992 | 13136 ft | 311 kts | 305° |
| 2026-04-21 17:08 | 33.06643 | -111.72012 | 12756 ft | 310 kts | 305° |
| 2026-04-21 17:08 | 33.07958 | -111.73985 | 12387 ft | 308 kts | 305° |
| 2026-04-21 17:09 | 33.10620 | -111.77982 | 11635 ft | 305 kts | 305° |
| 2026-04-21 17:09 | 33.11925 | -111.79943 | 11264 ft | 304 kts | 305° |
| 2026-04-21 17:09 | 33.13239 | -111.81921 | 10889 ft | 302 kts | 305° |
| 2026-04-21 17:10 | 33.14544 | -111.83886 | 10519 ft | 301 kts | 305° |
| 2026-04-21 17:10 | 33.15829 | -111.85822 | 10151 ft | 300 kts | 305° |
| 2026-04-21 17:10 | 33.17121 | -111.87765 | 9791 ft | 298 kts | 305° |
| 2026-04-21 17:10 | 33.18400 | -111.89691 | 9437 ft | 296 kts | 305° |
| 2026-04-21 17:11 | 33.19665 | -111.91601 | 9087 ft | 295 kts | 305° |
| 2026-04-21 17:11 | 33.20935 | -111.93516 | 8750 ft | 292 kts | 306° |
| 2026-04-21 17:11 | 33.22169 | -111.95379 | 8563 ft | 282 kts | 306° |
| 2026-04-21 17:11 | 33.23366 | -111.97182 | 8463 ft | 270 kts | 306° |
| 2026-04-21 17:12 | 33.24521 | -111.98921 | 8204 ft | 267 kts | 305° |
| 2026-04-21 17:12 | 33.25667 | -112.00651 | 7895 ft | 266 kts | 305° |
| 2026-04-21 17:12 | 33.26810 | -112.02379 | 7590 ft | 264 kts | 305° |
| 2026-04-21 17:12 | 33.27946 | -112.04093 | 7287 ft | 263 kts | 306° |
| 2026-04-21 17:13 | 33.29077 | -112.05800 | 7102 ft | 256 kts | 305° |
| 2026-04-21 17:13 | 33.30145 | -112.07463 | 7023 ft | 252 kts | 301° |
| 2026-04-21 17:13 | 33.31015 | -112.09280 | 7022 ft | 250 kts | 292° |
| 2026-04-21 17:13 | 33.31743 | -112.11137 | 7022 ft | 250 kts | 291° |
| 2026-04-21 17:14 | 33.32463 | -112.13044 | 7019 ft | 249 kts | 291° |
| 2026-04-21 17:14 | 33.33170 | -112.14909 | 7013 ft | 242 kts | 291° |
| 2026-04-21 17:14 | 33.33849 | -112.16715 | 7015 ft | 236 kts | 287° |
| 2026-04-21 17:14 | 33.34223 | -112.18578 | 7014 ft | 230 kts | 270° |
| 2026-04-21 17:15 | 33.34263 | -112.20488 | 7026 ft | 228 kts | 266° |
| 2026-04-21 17:15 | 33.34243 | -112.22395 | 7030 ft | 228 kts | 265° |
| 2026-04-21 17:15 | 33.34220 | -112.24288 | 7030 ft | 228 kts | 266° |
| 2026-04-21 17:15 | 33.34206 | -112.26163 | 7033 ft | 228 kts | 266° |
| 2026-04-21 17:16 | 33.34199 | -112.28052 | 7030 ft | 228 kts | 266° |
| 2026-04-21 17:16 | 33.34197 | -112.29962 | 7026 ft | 228 kts | 266° |
| 2026-04-21 17:16 | 33.34195 | -112.31834 | 7024 ft | 228 kts | 266° |
| 2026-04-21 17:16 | 33.34193 | -112.33746 | 7018 ft | 228 kts | 266° |
| 2026-04-21 17:17 | 33.34192 | -112.35635 | 7012 ft | 227 kts | 265° |
| 2026-04-21 17:17 | 33.34223 | -112.37535 | 6862 ft | 233 kts | 278° |
| 2026-04-21 17:17 | 33.35000 | -112.39195 | 6583 ft | 241 kts | 319° |
| 2026-04-21 17:17 | 33.36583 | -112.39952 | 6400 ft | 249 kts | 360° |
| 2026-04-21 17:18 | 33.38201 | -112.39440 | 6232 ft | 245 kts | 35° |
| 2026-04-21 17:18 | 33.39367 | -112.38013 | 6136 ft | 239 kts | 62° |
| 2026-04-21 17:18 | 33.40163 | -112.36257 | 6034 ft | 239 kts | 65° |
| 2026-04-21 17:18 | 33.40970 | -112.34528 | 5847 ft | 238 kts | 63° |
| 2026-04-21 17:19 | 33.41812 | -112.32836 | 5617 ft | 237 kts | 62° |
| 2026-04-21 17:19 | 33.42676 | -112.31174 | 5358 ft | 236 kts | 61° |
| 2026-04-21 17:19 | 33.43519 | -112.29488 | 5084 ft | 234 kts | 67° |
| 2026-04-21 17:19 | 33.43952 | -112.27698 | 4907 ft | 218 kts | 84° |
| 2026-04-21 17:20 | 33.44072 | -112.25923 | 4676 ft | 206 kts | 91° |
| 2026-04-21 17:20 | 33.44102 | -112.24281 | 4491 ft | 191 kts | 93° |
| 2026-04-21 17:20 | 33.44104 | -112.22727 | 4241 ft | 182 kts | 93° |
| 2026-04-21 17:20 | 33.44099 | -112.21264 | 4011 ft | 172 kts | 93° |
| 2026-04-21 17:21 | 33.44094 | -112.19883 | 3775 ft | 160 kts | 93° |
| 2026-04-21 17:21 | 33.44092 | -112.18609 | 3556 ft | 146 kts | 94° |
| 2026-04-21 17:21 | 33.44089 | -112.17401 | 3378 ft | 144 kts | 94° |
| 2026-04-21 17:21 | 33.44086 | -112.16202 | 3212 ft | 144 kts | 94° |
| 2026-04-21 17:22 | 33.44085 | -112.15412 | 3100 ft | 144 kts | 93° |
| 2026-04-21 17:22 | 33.44083 | -112.13823 | 2870 ft | 143 kts | 93° |
| 2026-04-21 17:22 | 33.44082 | -112.12634 | 2693 ft | 142 kts | 92° |
| 2026-04-21 17:22 | 33.44082 | -112.11457 | 2513 ft | 141 kts | 92° |
| 2026-04-21 17:23 | 33.44081 | -112.10279 | 2328 ft | 141 kts | 92° |
| 2026-04-21 17:23 | 33.44081 | -112.09118 | 2145 ft | 140 kts | 92° |
| 2026-04-21 17:23 | 33.44080 | -112.07945 | 1962 ft | 139 kts | 91° |
| 2026-04-21 17:23 | 33.44080 | -112.06798 | 1785 ft | 139 kts | 91° |
| 2026-04-21 17:24 | 33.44080 | -112.05633 | 1608 ft | 139 kts | 91° |
| 2026-04-21 17:24 | 33.44081 | -112.04478 | 1434 ft | 139 kts | 91° |
| 2026-04-21 17:24 | 33.44081 | -112.03336 | 1260 ft | 138 kts | 91° |
| 2026-04-21 17:24 | 33.44080 | -112.02188 | 1134 ft | 132 kts | 91° |
| 2026-04-21 17:25 | 33.44074 | -112.01237 | 1133 ft | 91 kts | 92° |
| 2026-04-21 17:25 | 33.44072 | -112.00627 | 1136 ft | 64 kts | 90° |
| 2026-04-21 17:25 | 33.44069 | -112.00207 | 1137 ft | 32 kts | 103° |
| 2026-04-21 17:25 | 33.43924 | -112.00069 | 1137 ft | 20 kts | 159° |
| 2026-04-21 17:26 | 33.43830 | -112.00002 | 1136 ft | 7 kts | 130° |
| 2026-04-21 17:26 | 33.43819 | -111.99987 | 1136 ft | 0 kts | 129° |